Time;durP1;ratioP1;P1;durP2;ratioP2;P2;SDS_P1;SDS_P2;PMS_P1;PMS_P2;Temp;Humidity;BMP_temperature;BMP_pressure;BME280_temperature;BME280_humidity;BME280_pressure;Samples;Min_cycle;Max_cycle;Signal;HPM_P1;HPM_P2
2021/06/07 00:02:15;;;;;;;46.80;29.00;;;15.90;99.90;;;16.67;100.00;98698.56;5103533;27;20521;-83
2021/06/07 00:04:43;;;;;;;45.10;25.77;;;16.00;99.90;;;16.64;100.00;98698.97;5107217;27;20446;-83
2021/06/07 00:07:13;;;;;;;47.43;27.20;;;15.90;99.90;;;16.64;100.00;98698.97;5103202;28;20458;-82
2021/06/07 00:09:42;;;;;;;41.67;25.83;;;16.00;99.90;;;16.57;100.00;98697.19;5101115;28;20515;-83
2021/06/07 00:12:14;;;;;;;39.63;25.23;;;15.90;99.90;;;16.60;100.00;98693.28;5102730;27;20521;-83
2021/06/07 00:14:43;;;;;;;48.53;27.10;;;15.80;99.90;;;16.64;100.00;98694.50;5098134;28;20498;-83
2021/06/07 00:17:14;;;;;;;51.33;26.53;;;15.90;99.90;;;16.68;100.00;98708.09;5101936;28;20981;-83
2021/06/07 00:19:42;;;;;;;51.60;29.83;;;15.90;99.90;;;16.69;100.00;98704.44;5100503;27;20458;-82
2021/06/07 00:22:11;;;;;;;53.13;28.73;;;16.00;99.90;;;16.64;100.00;98702.44;5101074;27;20484;-82
2021/06/07 00:24:40;;;;;;;42.67;26.90;;;15.90;99.90;;;16.70;100.00;98698.13;5106090;28;20990;-82
2021/06/07 00:27:09;;;;;;;55.00;27.70;;;15.90;99.90;;;16.70;100.00;98700.78;5101556;28;20474;-82
2021/06/07 00:29:37;;;;;;;47.03;26.63;;;15.90;99.90;;;16.71;100.00;98705.03;5099662;28;20533;-83
2021/06/07 00:32:06;;;;;;;47.67;26.87;;;15.90;99.90;;;16.68;100.00;98706.28;5094049;28;20774;-82
2021/06/07 00:34:36;;;;;;;45.70;25.33;;;15.90;99.90;;;16.68;100.00;98705.47;5106031;27;20915;-83
2021/06/07 00:37:04;;;;;;;47.60;27.63;;;15.90;99.90;;;16.69;100.00;98707.09;5102513;27;20490;-82
2021/06/07 00:39:32;;;;;;;46.70;28.67;;;15.90;99.90;;;16.71;100.00;98707.69;5100938;27;21028;-82
2021/06/07 00:42:00;;;;;;;49.53;30.57;;;16.00;99.90;;;16.71;100.00;98705.03;5092540;28;20530;-83
2021/06/07 00:44:28;;;;;;;44.13;27.83;;;16.00;99.90;;;16.62;100.00;98703.66;5104641;28;20471;-83
2021/06/07 00:46:56;;;;;;;44.23;28.80;;;15.90;99.90;;;16.67;100.00;98703.84;5098201;28;20459;-82
2021/06/07 00:49:25;;;;;;;49.77;29.20;;;15.90;99.90;;;16.67;100.00;98706.47;5105380;28;20469;-83
2021/06/07 00:51:54;;;;;;;49.10;29.03;;;15.80;99.90;;;16.69;100.00;98705.28;5101559;28;20521;-83
2021/06/07 00:54:22;;;;;;;60.90;30.00;;;15.90;99.90;;;16.70;100.00;98708.69;5092671;28;20844;-82
2021/06/07 00:56:50;;;;;;;47.87;28.80;;;15.90;99.90;;;16.69;100.00;98707.09;5094369;28;20962;-82
2021/06/07 00:59:18;;;;;;;47.37;27.20;;;15.90;99.90;;;16.70;100.00;98708.69;5104906;27;20450;-82
2021/06/07 01:01:47;;;;;;;49.10;27.77;;;15.90;99.90;;;16.62;100.00;98704.47;5099662;28;20467;-83
2021/06/07 01:04:15;;;;;;;44.07;28.47;;;15.80;99.90;;;16.65;100.00;98703.25;5100531;28;20490;-82
2021/06/07 01:06:43;;;;;;;50.40;29.70;;;15.90;99.90;;;16.66;100.00;98703.03;5099842;28;20462;-82
2021/06/07 01:09:13;;;;;;;53.70;27.43;;;15.90;99.90;;;16.65;100.00;98700.59;5104445;28;20504;-83
2021/06/07 01:11:41;;;;;;;51.40;27.20;;;15.90;99.90;;;16.69;100.00;98697.34;5102612;28;20507;-82
2021/06/07 01:14:09;;;;;;;46.47;26.67;;;15.90;99.90;;;16.72;100.00;98696.09;5095519;28;21032;-83
2021/06/07 01:16:37;;;;;;;45.87;26.50;;;15.90;99.90;;;16.67;100.00;98698.56;5102302;28;20466;-82
2021/06/07 01:19:09;;;;;;;48.03;28.00;;;15.90;99.90;;;16.57;100.00;98697.19;5096438;28;20466;-82
2021/06/07 01:21:37;;;;;;;44.40;28.73;;;15.80;99.90;;;16.59;100.00;98697.75;5106053;28;20941;-82
2021/06/07 01:24:08;;;;;;;51.50;31.27;;;15.90;99.90;;;16.64;100.00;98691.88;5098034;28;20498;-83
2021/06/07 01:26:36;;;;;;;51.50;28.37;;;16.00;99.90;;;16.63;100.00;98692.06;5091041;28;20455;-82
2021/06/07 01:29:04;;;;;;;48.73;28.20;;;15.90;99.90;;;16.65;100.00;98690.03;5097577;28;20919;-82
2021/06/07 01:31:33;;;;;;;46.70;28.33;;;16.00;99.90;;;16.64;100.00;98691.06;5100746;28;20794;-82
2021/06/07 01:34:01;;;;;;;50.37;29.33;;;15.90;99.90;;;16.66;100.00;98686.38;5096690;28;20452;-83
2021/06/07 01:36:29;;;;;;;42.13;25.47;;;16.00;99.90;;;16.69;100.00;98691.25;5101648;28;20486;-82
2021/06/07 01:38:57;;;;;;;51.43;27.93;;;16.00;99.90;;;16.62;100.00;98683.34;5098953;28;20978;-83
2021/06/07 01:41:27;;;;;;;47.17;27.00;;;16.00;99.90;;;16.65;100.00;98679.47;5097137;28;20463;-83
2021/06/07 01:43:55;;;;;;;45.47;26.80;;;15.90;99.90;;;16.63;100.00;98681.50;5097253;28;20493;-82
2021/06/07 01:46:23;;;;;;;50.93;29.50;;;15.90;99.90;;;16.63;100.00;98679.66;5101243;28;20463;-82
2021/06/07 01:48:51;;;;;;;43.87;25.90;;;15.90;99.90;;;16.62;100.00;98674.63;5095513;28;20560;-83
2021/06/07 01:51:19;;;;;;;43.90;27.13;;;15.90;99.90;;;16.60;100.00;98675.63;5100627;28;20519;-83
2021/06/07 01:53:47;;;;;;;47.70;26.17;;;15.80;99.90;;;16.56;100.00;98674.41;5101983;28;20999;-83
2021/06/07 01:56:15;;;;;;;42.13;26.10;;;15.90;99.90;;;16.57;100.00;98677.88;5091151;28;20529;-83
2021/06/07 01:58:45;;;;;;;48.63;26.47;;;15.80;99.90;;;16.56;100.00;98677.06;5098703;28;20504;-82
2021/06/07 02:01:17;;;;;;;42.90;25.50;;;15.80;99.90;;;16.53;100.00;98669.53;5100525;28;20825;-83
2021/06/07 02:03:46;;;;;;;43.77;24.80;;;15.80;99.90;;;16.53;100.00;98669.53;5101385;27;20597;-83
2021/06/07 02:06:20;;;;;;;45.47;27.27;;;15.70;99.90;;;16.55;100.00;98670.19;5103288;28;20900;-82
2021/06/07 02:08:48;;;;;;;49.90;25.60;;;15.80;99.90;;;16.56;100.00;98669.13;5100501;28;20769;-83
2021/06/07 02:11:21;;;;;;;42.50;25.80;;;15.80;99.90;;;16.57;100.00;98673.41;5094165;28;20462;-82
2021/06/07 02:13:56;;;;;;;46.80;26.50;;;15.80;99.90;;;16.56;100.00;98671.78;5102245;28;20489;-83
2021/06/07 02:16:29;;;;;;;43.63;23.83;;;15.80;99.90;;;16.60;100.00;98674.81;5101013;28;20453;-83
2021/06/07 02:18:58;;;;;;;43.67;26.20;;;15.90;99.90;;;16.54;100.00;98673.00;5102987;28;20454;-82
2021/06/07 02:21:27;;;;;;;41.10;24.90;;;15.70;99.90;;;16.58;100.00;98674.22;5103089;28;20508;-83
2021/06/07 02:23:56;;;;;;;42.70;26.20;;;15.80;99.90;;;16.59;100.00;98671.34;5104864;28;20498;-83
2021/06/07 02:26:26;;;;;;;40.17;25.30;;;15.80;99.90;;;16.56;100.00;98674.41;5097548;28;20466;-82
2021/06/07 02:29:01;;;;;;;40.07;24.57;;;15.70;99.90;;;16.54;100.00;98673.00;5096767;28;20505;-82
2021/06/07 02:31:31;;;;;;;43.80;25.43;;;15.70;99.90;;;16.59;100.00;98676.63;5098112;28;20462;-82
2021/06/07 02:34:04;;;;;;;48.20;25.90;;;15.80;99.90;;;16.53;100.00;98671.34;5097286;28;20956;-82
2021/06/07 02:36:35;;;;;;;36.17;23.40;;;15.70;99.90;;;16.54;100.00;98671.16;5095556;28;21050;-83
2021/06/07 02:39:09;;;;;;;43.73;26.10;;;15.70;99.90;;;16.53;100.00;98677.44;5095469;28;20455;-82
2021/06/07 02:41:39;;;;;;;44.07;23.90;;;15.70;99.90;;;16.49;100.00;98678.88;5102053;28;20930;-83
2021/06/07 02:44:09;;;;;;;42.67;24.63;;;15.70;99.90;;;16.53;100.00;98676.63;5101023;28;20525;-83
2021/06/07 02:46:37;;;;;;;37.37;26.17;;;15.70;99.90;;;16.50;100.00;98666.50;5100935;28;20458;-82
2021/06/07 02:49:06;;;;;;;38.17;23.50;;;15.70;99.90;;;16.52;100.00;98675.03;5097101;28;20558;-82
2021/06/07 02:51:34;;;;;;;39.70;23.73;;;15.70;99.90;;;16.53;100.00;98672.16;5092701;28;20459;-82
2021/06/07 02:54:02;;;;;;;45.30;25.60;;;15.70;99.90;;;16.53;100.00;98677.44;5102056;28;20462;-82
2021/06/07 02:56:30;;;;;;;42.47;23.30;;;15.80;99.90;;;16.52;100.00;98673.19;5102083;27;20519;-82
2021/06/07 02:58:58;;;;;;;44.93;23.17;;;15.80;99.90;;;16.51;100.00;98674.22;5102589;28;20503;-82
2021/06/07 03:01:27;;;;;;;42.40;25.27;;;15.70;99.90;;;16.52;100.00;98675.03;5096768;28;20463;-82
2021/06/07 03:03:55;;;;;;;46.23;23.67;;;15.70;99.90;;;16.53;100.00;98679.28;5102226;28;20503;-81
2021/06/07 03:06:23;;;;;;;49.87;24.87;;;15.70;99.90;;;16.53;100.00;98680.09;5105928;28;20509;-82
2021/06/07 03:08:51;;;;;;;34.17;22.67;;;15.70;99.90;;;16.53;100.00;98679.28;5102820;28;20462;-82
2021/06/07 03:11:19;;;;;;;38.53;24.57;;;15.70;99.90;;;16.51;100.00;98679.50;5105308;27;21118;-82
2021/06/07 03:13:47;;;;;;;40.57;24.67;;;15.70;99.90;;;16.47;100.00;98677.47;5100547;28;20447;-81
2021/06/07 03:16:16;;;;;;;41.17;25.87;;;15.70;99.90;;;16.49;100.00;98684.16;5100505;28;20455;-82
2021/06/07 03:18:46;;;;;;;33.90;21.77;;;15.70;99.90;;;16.51;100.00;98684.78;5100172;27;20471;-82
2021/06/07 03:21:14;;;;;;;39.20;23.10;;;15.70;99.90;;;16.52;100.00;98685.59;5099850;27;20455;-81
2021/06/07 03:23:44;;;;;;;43.30;24.17;;;15.80;99.90;;;16.51;100.00;98684.78;5104790;28;20999;-82
2021/06/07 03:26:12;;;;;;;38.80;23.43;;;15.80;99.90;;;16.53;100.00;98688.00;5105465;28;20454;-82
2021/06/07 03:28:40;;;;;;;34.80;21.23;;;15.80;99.90;;;16.54;100.00;98686.19;5105390;28;20478;-82
2021/06/07 03:31:11;;;;;;;35.40;21.97;;;15.80;99.90;;;16.54;100.00;98688.84;5098529;28;20471;-82
2021/06/07 03:33:39;;;;;;;38.80;21.20;;;15.80;99.90;;;16.52;100.00;98694.31;5102584;28;20458;-81
2021/06/07 03:36:09;;;;;;;42.57;22.60;;;15.70;99.90;;;16.54;100.00;98689.66;5100962;28;20965;-84
2021/06/07 03:38:37;;;;;;;51.40;31.13;;;15.70;99.90;;;16.55;100.00;98687.81;5103393;28;20495;-82
2021/06/07 03:41:07;;;;;;;37.27;21.90;;;15.70;99.90;;;16.53;100.00;98682.72;5102490;28;20516;-82
2021/06/07 03:43:38;;;;;;;37.43;21.10;;;15.70;99.90;;;16.52;100.00;98681.09;5106986;28;20562;-82
2021/06/07 03:46:07;;;;;;;105.50;55.30;;;15.80;99.90;;;16.54;100.00;98687.00;5096715;28;20455;-81
2021/06/07 03:48:35;;;;;;;44.87;26.70;;;15.80;99.90;;;16.56;100.00;98682.34;5101399;28;20462;-81
2021/06/07 03:51:04;;;;;;;32.97;19.43;;;15.80;99.90;;;16.58;100.00;98674.22;5103425;28;20492;-83
2021/06/07 03:53:33;;;;;;;36.20;21.87;;;15.80;99.90;;;16.58;100.00;98674.22;5105107;27;20443;-83
2021/06/07 03:56:01;;;;;;;32.47;20.87;;;15.80;99.90;;;16.58;100.00;98672.41;5105717;28;20442;-82
2021/06/07 03:58:31;;;;;;;30.17;19.83;;;15.80;99.90;;;16.58;100.00;98668.94;5103620;27;20879;-82
2021/06/07 04:00:59;;;;;;;32.70;19.90;;;15.80;99.90;;;16.57;100.00;98670.78;5102362;28;20447;-82
2021/06/07 04:03:27;;;;;;;32.13;19.63;;;15.90;99.90;;;16.58;100.00;98667.13;5096453;27;20513;-82
2021/06/07 04:05:55;;;;;;;34.67;18.80;;;15.80;99.90;;;16.58;100.00;98675.03;5100734;28;20443;-82
2021/06/07 04:08:23;;;;;;;42.17;22.50;;;15.80;99.90;;;16.55;100.00;98675.47;5105109;27;20502;-81
2021/06/07 04:10:52;;;;;;;39.33;21.20;;;15.90;99.90;;;16.56;100.00;98676.25;5108172;27;20989;-82
2021/06/07 04:13:20;;;;;;;34.13;19.97;;;15.80;99.90;;;16.57;100.00;98673.41;5102949;28;20462;-83
2021/06/07 04:15:48;;;;;;;39.60;18.20;;;15.90;99.90;;;16.59;100.00;98670.56;5094664;28;20835;-82
2021/06/07 04:18:17;;;;;;;30.60;18.63;;;15.70;99.90;;;16.57;100.00;98675.25;5106106;28;20479;-82
2021/06/07 04:20:45;;;;;;;34.37;20.23;;;15.70;99.90;;;16.53;100.00;98677.44;5099183;28;20455;-85
2021/06/07 04:23:13;;;;;;;44.63;23.43;;;15.70;99.90;;;16.56;100.00;98676.25;5099094;28;20463;-82
2021/06/07 04:25:41;;;;;;;33.80;17.40;;;15.80;99.90;;;16.56;100.00;98677.06;5092906;28;20973;-82
2021/06/07 04:28:10;;;;;;;28.07;17.07;;;15.80;99.90;;;16.59;100.00;98674.00;5102191;28;20551;-82
2021/06/07 04:30:38;;;;;;;29.73;19.23;;;15.80;99.90;;;16.58;100.00;98676.88;5099261;28;20507;-82
2021/06/07 04:33:09;;;;;;;38.87;16.67;;;15.80;99.90;;;16.62;100.00;98669.34;5105779;28;20508;-82
2021/06/07 04:35:37;;;;;;;28.27;18.57;;;15.80;99.90;;;16.64;100.00;98664.63;5099454;28;20552;-82
2021/06/07 04:38:05;;;;;;;34.57;19.13;;;15.90;99.90;;;16.67;100.00;98667.66;5099487;28;20489;-89
2021/06/07 04:40:37;;;;;;;66.13;35.30;;;15.90;99.90;;;16.65;100.00;98671.56;5102752;28;20521;-82
2021/06/07 04:43:07;;;;;;;30.20;17.17;;;15.80;99.90;;;16.66;100.00;98666.03;5101087;27;20447;-82
2021/06/07 04:45:43;;;;;;;26.50;17.13;;;15.80;99.90;;;16.68;100.00;98671.13;5102229;28;21232;-82
2021/06/07 04:48:12;;;;;;;30.13;17.10;;;15.80;99.90;;;16.68;100.00;98668.50;5107085;28;20781;-82
2021/06/07 04:50:41;;;;;;;25.33;17.17;;;15.90;99.90;;;16.72;100.00;98664.41;5104292;28;20883;-82
2021/06/07 04:53:11;;;;;;;38.00;16.80;;;15.90;99.90;;;16.72;100.00;98667.06;5094417;28;20514;-82
2021/06/07 04:55:43;;;;;;;32.30;15.90;;;15.90;99.90;;;16.71;100.00;98665.41;5096972;28;20444;-82
2021/06/07 04:58:15;;;;;;;180.57;114.77;;;15.90;99.90;;;16.73;100.00;98658.13;5097095;28;20459;-85
2021/06/07 05:00:50;;;;;;;50.63;26.97;;;16.00;99.90;;;16.75;100.00;98658.69;5100505;28;20459;-82
2021/06/07 05:03:18;;;;;;;24.17;15.10;;;16.00;99.90;;;16.76;100.00;98661.16;5101019;28;20559;-82
2021/06/07 05:05:47;;;;;;;24.87;15.63;;;16.00;99.90;;;16.78;100.00;98663.56;5102579;28;20494;-81
2021/06/07 05:08:15;;;;;;;22.63;13.17;;;16.10;99.90;;;16.82;100.00;98659.47;5100196;28;20443;-81
2021/06/07 05:10:43;;;;;;;24.17;13.60;;;16.10;99.90;;;16.83;100.00;98664.56;5106938;27;20929;-81
2021/06/07 05:13:11;;;;;;;23.03;12.97;;;16.10;99.90;;;16.85;100.00;98661.69;5103911;28;20533;-82
2021/06/07 05:15:40;;;;;;;28.63;14.17;;;16.20;99.90;;;16.84;100.00;98665.34;5100790;28;20636;-82
2021/06/07 05:18:11;;;;;;;26.87;14.00;;;16.10;99.90;;;16.84;100.00;98668.00;5106213;28;20934;-82
2021/06/07 05:20:40;;;;;;;20.50;12.97;;;16.10;99.90;;;16.86;100.00;98665.97;5104216;28;20462;-81
2021/06/07 05:23:10;;;;;;;24.30;13.70;;;16.20;99.90;;;16.88;100.00;98670.00;5117853;27;20442;-82
2021/06/07 05:25:43;;;;;;;22.03;13.80;;;16.20;99.90;;;16.92;100.00;98665.09;5127550;27;20481;-82
2021/06/07 05:28:15;;;;;;;28.33;14.47;;;16.30;99.90;;;16.93;100.00;98666.75;5121183;27;20484;-82
2021/06/07 05:30:47;;;;;;;25.00;13.87;;;16.30;99.90;;;16.96;100.00;98671.59;5100510;27;20447;-82
2021/06/07 05:33:18;;;;;;;22.50;13.40;;;16.30;99.90;;;17.00;100.00;98675.44;5108911;27;20439;-82
2021/06/07 05:35:50;;;;;;;19.10;13.03;;;16.30;99.90;;;17.01;100.00;98661.19;5103938;28;20547;-82
2021/06/07 05:38:21;;;;;;;18.33;12.47;;;16.40;99.90;;;17.03;100.00;98661.81;5105853;28;20443;-82
2021/06/07 05:40:58;;;;;;;22.63;12.77;;;16.40;99.90;;;17.08;100.00;98665.41;5104973;27;20446;-82
2021/06/07 05:43:26;;;;;;;17.97;11.80;;;16.40;99.90;;;17.08;100.00;98667.25;5105925;28;20446;-82
2021/06/07 05:45:55;;;;;;;20.17;11.70;;;16.40;99.90;;;17.09;100.00;98666.22;5106211;28;20848;-82
2021/06/07 05:48:24;;;;;;;26.40;12.80;;;16.40;99.90;;;17.13;100.00;98671.91;5105029;28;20499;-82
2021/06/07 05:50:53;;;;;;;18.90;12.97;;;16.40;99.90;;;17.16;100.00;98667.00;5112821;27;20494;-82
2021/06/07 05:53:25;;;;;;;19.87;12.60;;;16.40;99.90;;;17.23;100.00;98672.22;5113967;27;20439;-82
2021/06/07 05:55:53;;;;;;;23.13;14.30;;;16.50;99.90;;;17.22;100.00;98671.41;5107969;27;20443;-82
2021/06/07 05:58:24;;;;;;;22.80;10.67;;;16.60;99.90;;;17.19;100.00;98677.13;5103712;28;20515;-82
2021/06/07 06:00:54;;;;;;;19.53;12.10;;;16.50;99.90;;;17.23;100.00;98673.03;5104221;28;20435;-82
2021/06/07 06:03:23;;;;;;;19.30;12.77;;;16.60;99.90;;;17.25;100.00;98678.13;5103487;28;21078;-82
2021/06/07 06:05:56;;;;;;;20.43;12.97;;;16.50;99.90;;;17.29;100.00;98676.66;5115292;27;20507;-83
2021/06/07 06:08:25;;;;;;;19.63;13.07;;;16.70;99.90;;;17.32;100.00;98673.59;5110736;27;20494;-82
2021/06/07 06:10:53;;;;;;;16.90;11.03;;;16.70;99.90;;;17.36;100.00;98675.59;5114254;27;20486;-82
2021/06/07 06:13:56;;;;;;;16.43;10.27;;;16.70;99.90;;;17.39;100.00;98677.03;5103784;28;20486;-82
2021/06/07 06:16:25;;;;;;;18.60;10.77;;;16.80;99.90;;;17.45;100.00;98673.50;5095434;28;20463;-82
2021/06/07 06:18:55;;;;;;;21.53;10.83;;;16.80;99.90;;;17.49;100.00;98675.47;5109993;28;20949;-82
2021/06/07 06:21:28;;;;;;;15.23;9.93;;;16.80;99.90;;;17.56;100.00;98673.63;5120953;27;20518;-82
2021/06/07 06:23:57;;;;;;;15.57;9.77;;;16.90;99.90;;;17.62;100.00;98671.97;5118834;27;20442;-83
2021/06/07 06:26:39;;;;;;;18.33;11.50;;;17.00;99.90;;;17.67;100.00;98671.34;5118059;27;20435;-82
2021/06/07 06:29:09;;;;;;;13.60;8.60;;;17.10;99.90;;;17.71;100.00;98675.94;5094027;28;20475;-82
2021/06/07 06:31:37;;;;;;;13.37;9.50;;;17.10;99.90;;;17.73;100.00;98673.91;5100317;28;20446;-82
2021/06/07 06:34:07;;;;;;;10.73;9.03;;;17.10;99.90;;;17.79;100.00;98672.22;5098398;28;20450;-82
2021/06/07 06:36:36;;;;;;;16.80;10.40;;;17.10;99.90;;;17.82;100.00;98666.50;5108979;28;20470;-82
2021/06/07 06:39:06;;;;;;;14.47;9.63;;;17.20;99.90;;;17.89;100.00;98670.69;5106288;28;20451;-82
2021/06/07 06:41:36;;;;;;;15.00;9.63;;;17.20;99.90;;;17.92;100.00;98674.75;5100259;28;20504;-82
2021/06/07 06:44:05;;;;;;;20.00;10.50;;;17.30;99.90;;;17.99;100.00;98678.13;5115648;28;20844;-82
2021/06/07 06:46:33;;;;;;;13.57;9.63;;;17.40;99.90;;;18.06;100.00;98678.88;5101220;28;20832;-82
2021/06/07 06:49:03;;;;;;;17.00;9.40;;;17.40;99.90;;;18.10;100.00;98677.41;5101434;28;20439;-82
2021/06/07 06:51:33;;;;;;;12.60;8.60;;;17.50;99.90;;;18.13;100.00;98678.81;5103273;28;20458;-82
2021/06/07 06:54:01;;;;;;;13.40;8.27;;;17.60;99.90;;;18.09;100.00;98678.44;5102582;28;20973;-82
2021/06/07 06:56:29;;;;;;;14.40;8.70;;;17.50;99.90;;;18.13;100.00;98679.63;5101119;28;20446;-82
2021/06/07 06:58:59;;;;;;;11.37;8.03;;;17.50;99.90;;;18.12;100.00;98683.28;5102711;28;20442;-82
2021/06/07 07:01:27;;;;;;;13.57;9.27;;;17.50;99.90;;;18.12;100.00;98679.84;5099983;28;20451;-82
2021/06/07 07:03:56;;;;;;;15.97;9.27;;;17.50;99.90;;;18.14;100.00;98681.25;5102826;28;20431;-82
2021/06/07 07:06:25;;;;;;;12.50;8.30;;;17.60;99.90;;;18.12;100.00;98693.88;5101544;28;20489;-82
2021/06/07 07:08:54;;;;;;;11.37;9.07;;;17.50;99.90;;;18.11;100.00;98687.00;5110717;28;20438;-82
2021/06/07 07:11:22;;;;;;;12.57;7.13;;;17.50;99.90;;;18.07;100.00;98696.38;5100574;28;20446;-82
2021/06/07 07:13:52;;;;;;;14.87;9.33;;;17.50;99.90;;;18.07;100.00;98696.38;5110466;27;20466;-82
2021/06/07 07:16:20;;;;;;;14.73;9.23;;;17.50;99.90;;;18.09;100.00;98695.13;5093639;28;20455;-82
2021/06/07 07:18:48;;;;;;;11.23;7.60;;;17.50;99.90;;;18.10;100.00;98693.31;5105881;28;20517;-82
2021/06/07 07:21:16;;;;;;;12.53;8.40;;;17.50;99.90;;;18.14;100.00;98691.03;5108691;28;20435;-82
2021/06/07 07:23:44;;;;;;;11.27;7.57;;;17.60;99.90;;;18.19;100.00;98694.63;5110956;28;20445;-82
2021/06/07 07:26:14;;;;;;;10.30;8.67;;;17.60;99.90;;;18.15;100.00;98697.94;5102694;27;21022;-82
2021/06/07 07:28:43;;;;;;;10.80;7.60;;;17.50;99.90;;;18.22;100.00;98696.03;5108368;28;21023;-82
2021/06/07 07:31:11;;;;;;;10.47;7.10;;;17.60;99.90;;;18.22;100.00;98696.03;5099961;28;20492;-82
2021/06/07 07:33:44;;;;;;;11.07;7.87;;;17.50;99.90;;;18.28;100.00;98698.63;5100990;28;20446;-82
2021/06/07 07:36:15;;;;;;;11.27;8.10;;;17.70;99.90;;;18.31;100.00;98692.88;5102605;28;20473;-82
2021/06/07 07:38:43;;;;;;;10.73;7.10;;;17.70;99.90;;;18.43;100.00;98692.97;5102192;28;20438;-82
2021/06/07 07:41:13;;;;;;;9.40;6.90;;;17.80;99.90;;;18.42;100.00;98699.28;5103389;28;20971;-82
2021/06/07 07:43:41;;;;;;;12.97;6.27;;;17.80;99.90;;;18.44;100.00;98700.66;5108390;28;20793;-82
2021/06/07 07:46:09;;;;;;;10.47;7.30;;;17.80;99.90;;;18.52;100.00;98705.72;5107563;28;20546;-82
2021/06/07 07:48:38;;;;;;;9.00;6.47;;;17.90;99.90;;;18.54;100.00;98698.34;5108864;28;20823;-82
2021/06/07 07:51:06;;;;;;;9.63;6.37;;;18.00;99.90;;;18.65;100.00;98699.44;5108472;27;20954;-82
2021/06/07 07:53:34;;;;;;;9.60;6.93;;;18.10;99.90;;;18.72;100.00;98694.06;5108328;28;20446;-82
2021/06/07 07:56:02;;;;;;;7.43;5.67;;;18.20;99.90;;;18.79;100.00;98700.09;5101334;28;20441;-82
2021/06/07 07:58:32;;;;;;;9.40;6.20;;;18.20;99.90;;;18.79;100.00;98697.44;5105745;28;20521;-82
2021/06/07 08:01:00;;;;;;;8.97;6.10;;;18.30;99.90;;;18.74;100.00;98702.59;5109448;27;20850;-82
2021/06/07 08:03:28;;;;;;;9.80;6.40;;;18.30;99.90;;;18.53;100.00;98696.72;5103256;28;20446;-82
2021/06/07 08:05:56;;;;;;;11.77;7.40;;;18.00;99.90;;;18.38;100.00;98698.91;5111098;28;20550;-82
2021/06/07 08:08:24;;;;;;;11.27;6.90;;;17.80;99.90;;;18.38;100.00;98698.09;5111722;27;20490;-82
2021/06/07 08:10:55;;;;;;;8.77;7.30;;;17.80;99.90;;;18.41;100.00;98701.13;5105626;28;20999;-82
2021/06/07 08:13:25;;;;;;;11.37;7.60;;;17.80;99.90;;;18.43;100.00;98700.91;5115647;27;20466;-82
2021/06/07 08:15:54;;;;;;;9.20;7.03;;;17.90;99.90;;;18.39;100.00;98700.53;5098054;28;20939;-82
2021/06/07 08:18:22;;;;;;;16.90;6.43;;;17.70;99.90;;;18.53;100.00;98702.00;5116182;27;20438;-82
2021/06/07 08:20:51;;;;;;;13.53;7.73;;;17.90;99.90;;;18.58;100.00;98699.53;5106419;28;20956;-82
2021/06/07 08:23:19;;;;;;;11.03;7.03;;;17.90;99.90;;;18.68;100.00;98703.47;5113588;27;20494;-82
2021/06/07 08:25:47;;;;;;;12.17;5.93;;;18.00;99.90;;;18.78;100.00;98698.50;5113563;27;20502;-82
2021/06/07 08:28:16;;;;;;;10.93;7.10;;;18.10;99.90;;;18.84;100.00;98703.69;5107534;28;20463;-82
2021/06/07 08:30:44;;;;;;;8.90;5.50;;;18.20;99.90;;;18.91;100.00;98698.31;5107247;27;20443;-82
2021/06/07 08:33:13;;;;;;;8.13;5.90;;;18.30;99.90;;;18.99;100.00;98700.63;5110361;28;20488;-82
2021/06/07 08:35:41;;;;;;;10.97;6.20;;;18.30;99.90;;;19.04;100.00;98704.25;5103536;28;20447;-82
2021/06/07 08:38:10;;;;;;;7.27;5.03;;;18.40;99.90;;;19.08;100.00;98699.28;5112264;27;20485;-82
2021/06/07 08:40:38;;;;;;;7.00;5.53;;;18.50;99.90;;;19.06;100.00;98698.69;5106399;28;20430;-82
2021/06/07 08:43:06;;;;;;;6.33;5.40;;;18.50;99.90;;;19.12;100.00;98705.78;5096761;28;20435;-82
2021/06/07 08:45:35;;;;;;;8.00;5.80;;;18.60;99.90;;;19.19;100.00;98706.50;5107999;28;20482;-82
2021/06/07 08:48:03;;;;;;;6.97;4.83;;;18.60;99.90;;;19.24;100.00;98708.44;5101658;28;20524;-82
2021/06/07 08:50:33;;;;;;;8.50;6.13;;;18.60;99.90;;;19.31;100.00;98709.16;5103213;28;20515;-82
2021/06/07 08:53:02;;;;;;;9.60;6.37;;;18.70;99.90;;;19.30;100.00;98705.69;5098565;28;21003;-82
2021/06/07 08:55:33;;;;;;;6.93;5.40;;;18.70;99.90;;;19.35;100.00;98705.84;5104548;28;20474;-82
2021/06/07 08:58:04;;;;;;;8.63;5.50;;;18.80;99.90;;;19.38;100.00;98700.06;5108562;28;21095;-82
2021/06/07 09:00:37;;;;;;;7.00;5.40;;;18.80;99.90;;;19.38;100.00;98704.56;5105588;27;20449;-82
2021/06/07 09:03:09;;;;;;;8.83;5.40;;;18.80;99.90;;;19.40;100.00;98705.94;5104372;27;20949;-82
2021/06/07 09:05:40;;;;;;;7.50;5.47;;;18.80;99.90;;;19.32;100.00;98710.78;5111087;27;20538;-82
2021/06/07 09:08:12;;;;;;;9.33;5.30;;;18.70;99.90;;;19.36;100.00;98707.47;5103087;28;20898;-82
2021/06/07 09:10:44;;;;;;;7.70;4.87;;;18.80;99.90;;;19.45;100.00;98703.47;5114842;27;20546;-82
2021/06/07 09:13:15;;;;;;;13.23;5.80;;;18.80;99.90;;;19.49;100.00;98703.81;5108404;27;21005;-82
2021/06/07 09:15:46;;;;;;;9.53;5.90;;;18.80;99.90;;;19.55;100.00;98700.25;5098523;28;20447;-82
2021/06/07 09:18:27;;;;;;;8.77;5.30;;;19.00;99.90;;;19.61;100.00;98704.63;5103688;28;20450;-81
2021/06/07 09:21:04;;;;;;;6.73;5.20;;;19.00;99.90;;;19.70;100.00;98707.78;5100108;28;20439;-82
2021/06/07 09:23:44;;;;;;;9.07;4.60;;;19.10;99.90;;;19.75;100.00;98695.41;5100393;28;20695;-82
2021/06/07 09:26:29;;;;;;;6.97;5.40;;;19.20;99.90;;;19.68;100.00;98702.69;5103944;28;20514;-82
2021/06/07 09:29:00;;;;;;;6.90;5.20;;;19.10;99.90;;;19.74;100.00;98703.63;5108728;28;20462;-82
2021/06/07 09:31:31;;;;;;;7.00;4.97;;;19.20;99.90;;;19.68;100.00;98708.00;5100236;28;20438;-82
2021/06/07 09:34:03;;;;;;;6.57;4.70;;;19.10;99.90;;;19.70;100.00;98700.63;5103396;28;20514;-82
2021/06/07 09:36:41;;;;;;;7.10;5.43;;;19.10;99.90;;;19.81;100.00;98704.34;5103584;28;20557;-82
2021/06/07 09:39:18;;;;;;;8.40;4.67;;;19.20;99.90;;;19.83;100.00;98703.06;5101757;27;20439;-82
2021/06/07 09:41:56;;;;;;;5.17;4.00;;;19.20;99.90;;;19.88;100.00;98705.84;5110522;27;20961;-82
2021/06/07 09:44:36;;;;;;;4.97;4.47;;;19.30;99.90;;;19.93;100.00;98702.47;5110024;28;20444;-82
2021/06/07 09:47:15;;;;;;;7.07;4.07;;;19.30;99.90;;;19.91;100.00;98705.38;5105470;28;20502;-82
2021/06/07 09:49:47;;;;;;;9.00;4.63;;;19.30;99.90;;;19.89;100.00;98706.63;5111423;27;20442;-82
2021/06/07 09:52:21;;;;;;;5.70;4.00;;;19.30;99.90;;;19.92;100.00;98709.63;5102131;28;20443;-82
2021/06/07 09:55:16;;;;;;;4.97;4.47;;;19.30;99.90;;;19.97;100.00;98708.94;5104464;28;20442;-82
2021/06/07 09:57:51;;;;;;;6.00;4.33;;;19.30;99.90;;;19.99;100.00;98712.97;5090964;28;20447;-82
2021/06/07 10:00:41;;;;;;;5.87;4.37;;;19.40;99.90;;;19.86;100.00;98707.09;5100250;28;20793;-82
2021/06/07 10:03:22;;;;;;;5.30;4.37;;;19.20;99.90;;;19.91;100.00;98704.56;5099398;28;20496;-82
2021/06/07 10:05:54;;;;;;;6.20;4.40;;;19.30;99.90;;;19.97;100.00;98709.75;5103426;28;20485;-82
2021/06/07 10:08:24;;;;;;;6.60;4.67;;;19.30;99.90;;;20.00;100.00;98703.16;5103092;28;20516;-82
2021/06/07 10:10:54;;;;;;;8.50;4.97;;;19.30;99.90;;;20.04;100.00;98706.97;5104861;28;20457;-82
2021/06/07 10:13:22;;;;;;;6.20;4.87;;;19.40;99.90;;;20.06;100.00;98705.72;5097978;28;20466;-82
2021/06/07 10:15:52;;;;;;;7.20;5.60;;;19.40;99.90;;;20.00;100.00;98709.28;5096478;28;20447;-82